Meadow Lake, Canada
Current Conditions -  °F | °C
As of 2:00 PM on Friday 21 Nov 2014 (Local Time) from CYLJ Reporting Station
Haze Haze  
Wind Chill: 19°   Ceiling: 800
Heat Index: 28°   Visibility: 5mi
Dew Point: 27°   Wind: 10mph
Humidity: 93%   Direction: 30°NNE
Pressure: 29.53"   Gusts: NA
Location:  54.13°N, 108.45°W
Report Text: CYLJ 212000Z 03009KT 5SM BR FEW004 OVC008 M02/M03 A2953 RMK SF1ST7 SLP024
Loading
Personal Weather Stations






























Interactive Weather Map New forecast layout! Learn more

10-Day Weather Forecast

Advertisements
Track Severe Weather on mobile